Pagina principale
METAR-TAF:

METAR-TAF

Aeroporti :

Tabarka, Tunisia

latitudine: 36-57N, longitudine: 008-45E, altezza: 20 m

Osservazione

Il bollettino è stato emesso 27 minuti fa, alle 11:00 UTC
Vento 4 kt da est, variando fra nord/nord-est e sud-est
Temperature 27°C
Umidità 51%
Pressione 1011 hPa
Visibilità 10 km o più
Poco nuvoloso ad un'altezza di 2000 ft

METAR: DTKA 151100Z 08004KT 030V130 9999 FEW020 27/16 Q1011 NOSIG

Ora: 12:27 (11:27 UTC)

Previsione

Il bollettino è stato emesso 2 ore e 27 minuti fa, alle 09:00 UTC
Previsione valida dal 15 alle 10 UTC al 15 alle 19 UTC
Vento 10 kt da est
Visibilità: 8000 m
Nubi sparse ad un'altezza di 2000 ft

TAF: DTKA 150900Z 1510/1519 09010KT 8000 SCT020

Osservazioni e previsioni meteorologiche di più di 4000 aeroporti (messaggi METAR e TAF).

Le stazioni disponibili sono rappresentate dai dischi gialli e rossi sulla carta.

Puntare il mouse per vedere il nome della stazione.

Clicca sopra per visualizzare le osservazioni e previsioni meteorologiche.

Per cambiare la mappa : fare clic sui pulsanti verdi con una croce nera per ingrandire, il pulsante verde con un trattino per diminuire, o sulla freccia verde per le mappe adiacenti.


METAR-TAF: